Time;durP1;ratioP1;P1;durP2;ratioP2;P2;SDS_P1;SDS_P2;PMS_P1;PMS_P2;Temp;Humidity;BMP_temperature;BMP_pressure;BME280_temperature;BME280_humidity;BME280_pressure;Samples;Min_cycle;Max_cycle;Signal;HPM_P1;HPM_P2
2023/01/09 00:00:06;;;;;;;;;1.75;1.75;;;;;;;;5009092;28;45423;-76
2023/01/09 00:02:31;;;;;;;;;1.75;0.50;;;;;;;;5008525;28;45522;-74
2023/01/09 00:04:56;;;;;;;;;2.50;0.75;;;;;;;;5014645;28;45334;-75
2023/01/09 00:07:21;;;;;;;;;0.00;0.00;;;;;;;;5018667;28;45361;-75
2023/01/09 00:09:46;;;;;;;;;1.75;0.75;;;;;;;;5017662;28;45363;-75
2023/01/09 00:12:12;;;;;;;;;2.25;1.00;;;;;;;;5014929;28;46153;-75
2023/01/09 00:14:37;;;;;;;;;1.50;0.00;;;;;;;;5009271;28;45960;-76
2023/01/09 00:17:02;;;;;;;;;1.25;1.00;;;;;;;;5016028;28;45147;-75
2023/01/09 00:19:27;;;;;;;;;0.00;0.00;;;;;;;;5011817;28;45222;-75
2023/01/09 00:21:52;;;;;;;;;1.75;0.75;;;;;;;;5013128;28;45881;-76
2023/01/09 00:24:18;;;;;;;;;0.00;0.00;;;;;;;;5001396;28;46139;-74
2023/01/09 00:26:43;;;;;;;;;0.50;0.50;;;;;;;;5011849;28;45319;-74
2023/01/09 00:29:09;;;;;;;;;1.00;0.00;;;;;;;;5007497;28;45343;-74
2023/01/09 00:31:34;;;;;;;;;3.75;0.25;;;;;;;;5011074;28;45337;-73
2023/01/09 00:34:01;;;;;;;;;0.25;0.00;;;;;;;;5007821;28;46064;-74
2023/01/09 00:36:26;;;;;;;;;4.50;2.00;;;;;;;;5012178;28;45296;-74
2023/01/09 00:38:52;;;;;;;;;3.75;1.00;;;;;;;;5013945;28;45374;-75
2023/01/09 00:41:19;;;;;;;;;2.00;1.00;;;;;;;;5015858;28;46292;-74
2023/01/09 00:43:54;;;;;;;;;2.00;1.00;;;;;;;;5009095;28;45189;-75
2023/01/09 00:46:20;;;;;;;;;2.25;1.00;;;;;;;;5014017;28;45640;-75
2023/01/09 00:48:47;;;;;;;;;2.25;1.25;;;;;;;;5008990;28;45482;-76
2023/01/09 00:51:13;;;;;;;;;3.00;1.75;;;;;;;;5014608;28;45218;-76
2023/01/09 00:53:40;;;;;;;;;4.00;0.75;;;;;;;;5011077;28;45490;-75
2023/01/09 00:56:07;;;;;;;;;1.50;0.50;;;;;;;;5014571;28;45392;-75
2023/01/09 00:58:32;;;;;;;;;1.00;1.00;;;;;;;;5002269;28;45447;-73
2023/01/09 01:00:58;;;;;;;;;3.00;3.00;;;;;;;;5017083;28;45227;-76
2023/01/09 01:03:23;;;;;;;;;1.00;0.00;;;;;;;;5004516;28;46385;-75
2023/01/09 01:08:32;;;;;;;;;0.25;0.00;;;;;;;;5006056;28;45382;-75
2023/01/09 01:11:02;;;;;;;;;3.50;0.00;;;;;;;;5015019;28;45919;-75
2023/01/09 01:13:27;;;;;;;;;1.00;1.00;;;;;;;;5005388;28;45220;-76
2023/01/09 01:15:53;;;;;;;;;1.25;1.25;;;;;;;;5017946;28;45407;-75
2023/01/09 01:18:18;;;;;;;;;3.00;0.00;;;;;;;;5002828;28;45478;-75
2023/01/09 01:20:43;;;;;;;;;1.50;1.50;;;;;;;;5006201;28;45402;-76
2023/01/09 01:23:09;;;;;;;;;1.75;1.75;;;;;;;;5009369;28;45868;-75
2023/01/09 01:25:38;;;;;;;;;0.00;0.00;;;;;;;;5007276;28;45406;-76
2023/01/09 01:28:04;;;;;;;;;3.00;2.00;;;;;;;;5009389;28;45679;-75
2023/01/09 01:30:30;;;;;;;;;2.25;1.00;;;;;;;;5007137;28;45400;-76
2023/01/09 01:32:55;;;;;;;;;2.75;1.00;;;;;;;;5008755;28;45409;-75
2023/01/09 01:35:21;;;;;;;;;2.50;1.00;;;;;;;;5011785;28;45386;-76
2023/01/09 01:37:48;;;;;;;;;4.50;1.00;;;;;;;;5014940;28;45474;-75
2023/01/09 01:40:14;;;;;;;;;2.50;1.75;;;;;;;;5012474;28;45161;-75
2023/01/09 01:42:46;;;;;;;;;3.00;1.00;;;;;;;;5014007;28;46282;-75
2023/01/09 01:45:13;;;;;;;;;3.25;1.50;;;;;;;;5013688;28;45276;-74
2023/01/09 01:47:41;;;;;;;;;4.00;0.75;;;;;;;;5014130;28;45533;-75
2023/01/09 01:50:21;;;;;;;;;2.00;0.00;;;;;;;;5019513;28;45969;-75
2023/01/09 01:52:49;;;;;;;;;2.00;2.00;;;;;;;;5013997;28;45248;-74
2023/01/09 01:55:15;;;;;;;;;1.25;0.00;;;;;;;;5015871;28;45279;-75
2023/01/09 01:57:42;;;;;;;;;6.75;2.00;;;;;;;;5012290;28;45447;-74
2023/01/09 02:00:08;;;;;;;;;2.00;2.00;;;;;;;;5011031;28;45296;-75
2023/01/09 02:02:33;;;;;;;;;2.00;1.00;;;;;;;;5013752;28;45485;-76
2023/01/09 02:04:59;;;;;;;;;1.00;1.00;;;;;;;;5012288;28;45295;-75
2023/01/09 02:07:24;;;;;;;;;3.00;1.50;;;;;;;;5012250;28;45437;-75
2023/01/09 02:09:50;;;;;;;;;0.25;0.25;;;;;;;;5012394;28;44927;-76
2023/01/09 02:12:17;;;;;;;;;3.00;0.00;;;;;;;;5013332;28;45225;-76
2023/01/09 02:14:44;;;;;;;;;3.00;2.00;;;;;;;;5012081;28;45256;-76
2023/01/09 02:17:15;;;;;;;;;1.25;1.25;;;;;;;;5012879;28;45464;-76
2023/01/09 02:19:59;;;;;;;;;8.00;1.00;;;;;;;;5026299;28;45381;-75
2023/01/09 02:22:27;;;;;;;;;1.00;1.00;;;;;;;;5002613;28;45392;-76
2023/01/09 02:24:52;;;;;;;;;1.00;1.00;;;;;;;;5002442;28;45307;-75
2023/01/09 02:27:24;;;;;;;;;4.00;2.00;;;;;;;;5011255;28;45383;-75
2023/01/09 02:30:08;;;;;;;;;1.25;0.25;;;;;;;;5004429;28;45646;-75
2023/01/09 02:32:40;;;;;;;;;2.25;2.00;;;;;;;;5001476;28;45279;-76
2023/01/09 02:35:13;;;;;;;;;1.50;1.00;;;;;;;;5017627;28;45351;-74
2023/01/09 02:37:41;;;;;;;;;4.50;1.25;;;;;;;;5009279;28;45414;-73
2023/01/09 02:40:12;;;;;;;;;1.00;1.00;;;;;;;;5015045;28;45303;-76
2023/01/09 02:42:39;;;;;;;;;4.25;1.50;;;;;;;;5011470;28;45549;-74
2023/01/09 02:45:05;;;;;;;;;1.25;1.00;;;;;;;;5012199;28;45449;-74
2023/01/09 02:47:33;;;;;;;;;2.75;2.00;;;;;;;;5013757;28;44846;-74
2023/01/09 02:50:00;;;;;;;;;2.50;1.50;;;;;;;;5013890;28;45434;-74
2023/01/09 02:52:37;;;;;;;;;2.00;0.75;;;;;;;;5016856;28;45494;-75
2023/01/09 02:55:03;;;;;;;;;2.50;1.00;;;;;;;;5015403;28;45302;-75
2023/01/09 02:57:39;;;;;;;;;3.00;2.00;;;;;;;;5013146;28;45404;-75
2023/01/09 03:00:06;;;;;;;;;3.00;2.00;;;;;;;;5010680;28;45288;-75
2023/01/09 03:02:40;;;;;;;;;1.75;1.75;;;;;;;;5022630;28;45592;-75
2023/01/09 03:05:21;;;;;;;;;2.00;2.00;;;;;;;;5014767;28;45324;-74
2023/01/09 03:07:51;;;;;;;;;0.75;0.75;;;;;;;;5011698;28;45393;-75
2023/01/09 03:10:19;;;;;;;;;1.00;1.00;;;;;;;;5016278;28;45345;-74
2023/01/09 03:12:46;;;;;;;;;2.00;2.00;;;;;;;;5019496;28;45448;-75
2023/01/09 03:15:13;;;;;;;;;2.75;1.00;;;;;;;;5016964;28;45939;-75
2023/01/09 03:17:40;;;;;;;;;6.00;2.50;;;;;;;;5008632;28;45236;-76
2023/01/09 03:20:07;;;;;;;;;3.25;1.00;;;;;;;;5018173;28;45430;-74
2023/01/09 03:22:33;;;;;;;;;1.25;1.25;;;;;;;;5010588;28;46429;-74
2023/01/09 03:24:58;;;;;;;;;1.75;1.00;;;;;;;;5016959;28;45354;-75
2023/01/09 03:27:23;;;;;;;;;2.00;0.25;;;;;;;;5012035;28;45285;-75
2023/01/09 03:29:50;;;;;;;;;5.25;2.00;;;;;;;;5022160;28;44739;-75
2023/01/09 03:32:15;;;;;;;;;2.25;1.00;;;;;;;;5010876;28;45878;-75
2023/01/09 03:34:40;;;;;;;;;3.25;0.25;;;;;;;;5018708;28;45405;-74
2023/01/09 03:37:05;;;;;;;;;1.00;0.00;;;;;;;;5014314;28;45242;-74
2023/01/09 03:39:31;;;;;;;;;1.00;1.00;;;;;;;;5008348;28;45684;-74
2023/01/09 03:41:56;;;;;;;;;2.75;1.00;;;;;;;;5014844;28;45161;-74
2023/01/09 03:44:21;;;;;;;;;0.75;0.75;;;;;;;;5007808;28;45208;-75
2023/01/09 03:46:49;;;;;;;;;5.00;2.75;;;;;;;;5016526;28;45236;-75
2023/01/09 03:49:14;;;;;;;;;2.25;0.50;;;;;;;;5009757;28;45341;-75
2023/01/09 03:51:39;;;;;;;;;0.00;0.00;;;;;;;;5016777;28;46083;-75
2023/01/09 03:54:04;;;;;;;;;1.50;1.00;;;;;;;;5012251;28;45237;-75
2023/01/09 03:56:29;;;;;;;;;3.50;0.75;;;;;;;;5015020;28;45442;-75
2023/01/09 03:58:55;;;;;;;;;4.50;1.00;;;;;;;;5008608;28;45360;-75
2023/01/09 04:01:20;;;;;;;;;2.00;1.00;;;;;;;;5018039;28;45784;-77
2023/01/09 04:03:45;;;;;;;;;1.50;1.50;;;;;;;;5003021;28;45361;-75
2023/01/09 04:06:10;;;;;;;;;4.00;0.00;;;;;;;;5017923;28;45402;-75
2023/01/09 04:08:35;;;;;;;;;1.75;1.00;;;;;;;;5013314;28;45332;-74
2023/01/09 04:11:01;;;;;;;;;1.50;1.00;;;;;;;;5017449;28;47269;-76
2023/01/09 04:13:26;;;;;;;;;3.50;0.00;;;;;;;;5008008;28;45303;-76
2023/01/09 04:15:51;;;;;;;;;2.50;1.00;;;;;;;;5018858;28;45408;-77
2023/01/09 04:18:16;;;;;;;;;1.75;0.75;;;;;;;;5006002;28;45387;-74
2023/01/09 04:20:42;;;;;;;;;2.75;0.00;;;;;;;;5019129;28;45304;-74
2023/01/09 04:23:07;;;;;;;;;3.25;0.00;;;;;;;;5008247;28;45443;-74
2023/01/09 04:25:32;;;;;;;;;1.00;0.50;;;;;;;;5007202;28;45269;-75
2023/01/09 04:27:57;;;;;;;;;0.75;0.25;;;;;;;;5010158;28;45514;-74
2023/01/09 04:30:23;;;;;;;;;0.00;0.00;;;;;;;;5006425;28;47930;-75
2023/01/09 04:32:48;;;;;;;;;4.25;0.00;;;;;;;;5015194;28;45433;-77
2023/01/09 04:35:13;;;;;;;;;0.00;0.00;;;;;;;;5008865;28;45212;-74
2023/01/09 04:37:39;;;;;;;;;3.50;0.00;;;;;;;;5012132;28;46963;-75
2023/01/09 04:40:07;;;;;;;;;0.50;0.00;;;;;;;;5009288;28;45313;-74
2023/01/09 04:42:32;;;;;;;;;3.25;1.00;;;;;;;;5010861;28;45321;-76
2023/01/09 04:44:58;;;;;;;;;2.75;0.00;;;;;;;;5011750;28;45305;-75
2023/01/09 04:47:23;;;;;;;;;3.00;0.00;;;;;;;;5011690;28;45259;-76
2023/01/09 04:49:48;;;;;;;;;6.25;2.00;;;;;;;;5009925;28;46973;-74
2023/01/09 04:52:14;;;;;;;;;2.00;1.00;;;;;;;;5012896;28;45307;-75
2023/01/09 04:54:39;;;;;;;;;0.00;0.00;;;;;;;;5012232;28;45458;-75
2023/01/09 04:57:04;;;;;;;;;1.00;0.00;;;;;;;;5014145;28;46231;-76
2023/01/09 04:59:29;;;;;;;;;3.25;0.00;;;;;;;;5006524;28;47082;-76
2023/01/09 05:01:57;;;;;;;;;3.50;1.00;;;;;;;;5011916;28;45454;-75
2023/01/09 05:04:22;;;;;;;;;1.00;0.00;;;;;;;;5009207;28;45343;-75
2023/01/09 05:06:47;;;;;;;;;0.00;0.00;;;;;;;;5014647;28;45323;-74
2023/01/09 05:09:13;;;;;;;;;0.25;0.25;;;;;;;;5008285;28;45303;-76
2023/01/09 05:11:38;;;;;;;;;1.50;0.50;;;;;;;;5018793;28;45247;-76
2023/01/09 05:14:03;;;;;;;;;1.00;1.00;;;;;;;;5014101;28;45334;-76
2023/01/09 05:16:30;;;;;;;;;2.25;1.00;;;;;;;;5018315;28;45277;-75
2023/01/09 05:18:55;;;;;;;;;0.50;0.00;;;;;;;;5011501;28;46184;-74
2023/01/09 05:21:21;;;;;;;;;1.75;0.00;;;;;;;;5020075;28;45195;-76
2023/01/09 05:23:46;;;;;;;;;0.00;0.00;;;;;;;;5011373;28;45193;-75
2023/01/09 05:26:12;;;;;;;;;1.50;0.00;;;;;;;;5012765;28;45269;-76
2023/01/09 05:28:37;;;;;;;;;2.25;1.00;;;;;;;;5011313;28;46109;-75
2023/01/09 05:31:03;;;;;;;;;2.00;0.50;;;;;;;;5016424;28;45236;-75
2023/01/09 05:33:28;;;;;;;;;0.00;0.00;;;;;;;;5015335;28;45229;-75
2023/01/09 05:35:53;;;;;;;;;0.25;0.25;;;;;;;;5011385;28;45474;-76
2023/01/09 05:38:19;;;;;;;;;1.00;0.25;;;;;;;;5010694;28;46227;-74
2023/01/09 05:40:44;;;;;;;;;0.75;0.00;;;;;;;;5010374;28;45393;-75
2023/01/09 05:43:09;;;;;;;;;3.00;1.00;;;;;;;;5016707;28;45479;-76
2023/01/09 05:45:34;;;;;;;;;0.00;0.00;;;;;;;;5014180;28;45440;-75
2023/01/09 05:48:00;;;;;;;;;0.00;0.00;;;;;;;;5015654;28;45505;-75
2023/01/09 05:50:25;;;;;;;;;1.00;0.00;;;;;;;;5020978;28;45232;-75
2023/01/09 05:52:50;;;;;;;;;1.25;1.25;;;;;;;;5017962;28;45597;-74
2023/01/09 05:55:16;;;;;;;;;0.00;0.00;;;;;;;;5015999;28;45425;-75
2023/01/09 05:57:41;;;;;;;;;0.75;0.00;;;;;;;;5015525;28;45328;-75
2023/01/09 06:00:08;;;;;;;;;0.50;0.50;;;;;;;;5011438;28;45442;-75
2023/01/09 06:02:33;;;;;;;;;1.00;1.00;;;;;;;;5016599;28;45286;-75
2023/01/09 06:04:58;;;;;;;;;1.50;0.00;;;;;;;;5009926;28;45352;-76
2023/01/09 06:07:23;;;;;;;;;0.00;0.00;;;;;;;;5016334;28;45480;-76
2023/01/09 06:09:50;;;;;;;;;1.25;0.00;;;;;;;;5019749;28;45455;-78
2023/01/09 06:12:15;;;;;;;;;0.00;0.00;;;;;;;;5019034;28;45473;-75
2023/01/09 06:14:42;;;;;;;;;1.50;0.00;;;;;;;;5014708;28;45237;-77
2023/01/09 06:17:08;;;;;;;;;1.00;1.00;;;;;;;;5015799;28;45474;-76
2023/01/09 06:19:34;;;;;;;;;3.25;0.25;;;;;;;;5017472;28;45490;-76
2023/01/09 06:21:59;;;;;;;;;1.00;1.00;;;;;;;;5016105;28;45610;-76
2023/01/09 06:24:24;;;;;;;;;2.50;0.75;;;;;;;;5005417;28;45535;-75
2023/01/09 06:26:49;;;;;;;;;0.50;0.00;;;;;;;;5012424;28;45414;-76
2023/01/09 06:29:15;;;;;;;;;4.00;0.25;;;;;;;;5009536;28;45285;-75
2023/01/09 06:31:40;;;;;;;;;0.25;0.00;;;;;;;;5016328;28;45468;-76
2023/01/09 06:34:05;;;;;;;;;1.00;1.00;;;;;;;;5009809;28;45264;-76
2023/01/09 06:36:30;;;;;;;;;2.00;0.50;;;;;;;;5014221;28;45533;-76
2023/01/09 06:38:55;;;;;;;;;3.50;0.00;;;;;;;;5013636;28;45467;-76
2023/01/09 06:41:21;;;;;;;;;0.00;0.00;;;;;;;;5020099;28;45277;-76
2023/01/09 06:43:46;;;;;;;;;0.00;0.00;;;;;;;;5009983;28;45534;-75
2023/01/09 06:46:11;;;;;;;;;0.00;0.00;;;;;;;;5015674;28;45786;-76
2023/01/09 06:48:36;;;;;;;;;0.00;0.00;;;;;;;;5012455;28;45514;-77
2023/01/09 06:51:02;;;;;;;;;0.25;0.00;;;;;;;;5019233;28;45399;-76
2023/01/09 06:53:27;;;;;;;;;2.75;0.00;;;;;;;;5015523;28;45738;-80
2023/01/09 06:55:52;;;;;;;;;0.00;0.00;;;;;;;;5019669;28;45351;-78
2023/01/09 06:58:18;;;;;;;;;0.00;0.00;;;;;;;;5009827;28;45299;-79
2023/01/09 07:00:43;;;;;;;;;1.00;1.00;;;;;;;;5018821;28;45382;-77
2023/01/09 07:03:09;;;;;;;;;1.00;0.00;;;;;;;;5013658;28;45737;-77
2023/01/09 07:05:37;;;;;;;;;0.00;0.00;;;;;;;;5016624;28;47444;-77
2023/01/09 07:08:03;;;;;;;;;0.25;0.00;;;;;;;;5010998;28;45397;-76
2023/01/09 07:10:28;;;;;;;;;1.00;0.00;;;;;;;;5017411;28;45144;-77
2023/01/09 07:12:53;;;;;;;;;1.00;0.00;;;;;;;;5010821;28;45195;-78
2023/01/09 07:15:19;;;;;;;;;0.00;0.00;;;;;;;;5005847;28;45318;-78
2023/01/09 07:17:44;;;;;;;;;1.00;0.00;;;;;;;;5009481;28;45406;-77
2023/01/09 07:20:09;;;;;;;;;1.00;0.00;;;;;;;;5019735;28;45344;-76
2023/01/09 07:22:34;;;;;;;;;1.00;0.00;;;;;;;;5010572;28;45407;-76
2023/01/09 07:25:00;;;;;;;;;1.00;0.75;;;;;;;;5008130;28;46223;-78
2023/01/09 07:27:25;;;;;;;;;1.25;0.00;;;;;;;;5015838;28;45356;-82
2023/01/09 07:29:52;;;;;;;;;0.00;0.00;;;;;;;;5008284;28;45367;-80
2023/01/09 07:32:17;;;;;;;;;1.00;0.00;;;;;;;;5014513;28;45604;-78
2023/01/09 07:34:42;;;;;;;;;0.00;0.00;;;;;;;;5010864;28;47264;-81
2023/01/09 07:37:08;;;;;;;;;0.00;0.00;;;;;;;;5019561;28;45260;-81
2023/01/09 07:39:33;;;;;;;;;0.00;0.00;;;;;;;;5011612;28;45435;-81
2023/01/09 07:41:58;;;;;;;;;1.00;0.75;;;;;;;;5020753;28;45615;-79
2023/01/09 07:44:23;;;;;;;;;1.00;0.00;;;;;;;;5009763;28;46053;-78
2023/01/09 07:46:49;;;;;;;;;0.00;0.00;;;;;;;;5010800;28;45292;-82
2023/01/09 07:49:14;;;;;;;;;0.25;0.00;;;;;;;;5008906;28;44788;-78
2023/01/09 07:51:42;;;;;;;;;0.00;0.00;;;;;;;;5017539;28;45602;-78
2023/01/09 07:54:07;;;;;;;;;1.00;0.00;;;;;;;;5008888;28;45242;-80
2023/01/09 07:56:32;;;;;;;;;0.00;0.00;;;;;;;;5017557;28;45224;-77
2023/01/09 07:58:58;;;;;;;;;1.50;0.00;;;;;;;;5006985;28;45733;-77
2023/01/09 08:01:23;;;;;;;;;0.00;0.00;;;;;;;;5014520;28;45309;-79
2023/01/09 08:03:48;;;;;;;;;2.00;1.00;;;;;;;;5010161;28;45198;-78
2023/01/09 08:06:13;;;;;;;;;0.00;0.00;;;;;;;;5016239;28;45421;-77
2023/01/09 08:08:38;;;;;;;;;1.00;0.00;;;;;;;;5012895;28;45355;-78
2023/01/09 08:11:04;;;;;;;;;0.00;0.00;;;;;;;;5023598;28;45233;-78
2023/01/09 08:13:29;;;;;;;;;0.50;0.00;;;;;;;;5009300;28;45476;-78
2023/01/09 08:15:54;;;;;;;;;0.00;0.00;;;;;;;;5018525;28;45264;-78
2023/01/09 08:18:19;;;;;;;;;1.25;0.00;;;;;;;;5011119;28;44816;-78
2023/01/09 08:20:47;;;;;;;;;1.50;0.00;;;;;;;;5019060;28;45299;-78
2023/01/09 08:23:12;;;;;;;;;1.50;1.00;;;;;;;;5012409;28;47281;-78
2023/01/09 08:25:37;;;;;;;;;4.25;0.25;;;;;;;;5013761;28;45333;-78
2023/01/09 08:28:02;;;;;;;;;0.00;0.00;;;;;;;;5009323;28;45534;-79
2023/01/09 08:30:27;;;;;;;;;0.00;0.00;;;;;;;;5006623;28;46203;-77
2023/01/09 08:32:53;;;;;;;;;3.00;0.00;;;;;;;;5010894;28;45441;-78
2023/01/09 08:35:18;;;;;;;;;1.00;1.00;;;;;;;;5008841;28;45379;-78
2023/01/09 08:37:47;;;;;;;;;0.00;0.00;;;;;;;;5009617;28;45394;-78
2023/01/09 08:40:13;;;;;;;;;1.00;0.00;;;;;;;;5015318;28;45769;-79
2023/01/09 08:48:06;;;;;;;;;0.00;0.00;;;;;;;;5013870;28;45281;-77
2023/01/09 08:50:32;;;;;;;;;0.00;0.00;;;;;;;;5004241;28;45287;-80
2023/01/09 08:52:57;;;;;;;;;0.00;0.00;;;;;;;;5009793;28;46487;-82
2023/01/09 08:55:23;;;;;;;;;0.00;0.00;;;;;;;;5013674;28;44680;-80
2023/01/09 08:57:51;;;;;;;;;0.00;0.00;;;;;;;;5014481;28;45228;-81
2023/01/09 09:00:18;;;;;;;;;0.00;0.00;;;;;;;;5024226;28;45418;-80
2023/01/09 09:02:43;;;;;;;;;0.00;0.00;;;;;;;;5013471;28;45438;-77
2023/01/09 09:05:08;;;;;;;;;0.00;0.00;;;;;;;;5015208;28;45245;-79
2023/01/09 09:07:33;;;;;;;;;0.00;0.00;;;;;;;;5013343;28;45707;-82
2023/01/09 09:09:59;;;;;;;;;0.00;0.00;;;;;;;;5020883;28;45482;-80
2023/01/09 09:12:24;;;;;;;;;0.00;0.00;;;;;;;;5015145;28;47982;-79
2023/01/09 09:17:33;;;;;;;;;0.25;0.00;;;;;;;;5013636;28;45244;-76
2023/01/09 09:19:59;;;;;;;;;1.75;0.25;;;;;;;;5021315;28;45655;-78
2023/01/09 09:22:24;;;;;;;;;3.00;0.00;;;;;;;;5017533;28;45394;-79
2023/01/09 09:24:49;;;;;;;;;0.00;0.00;;;;;;;;5008034;28;45309;-79
2023/01/09 09:27:14;;;;;;;;;0.00;0.00;;;;;;;;5015451;28;45204;-79
2023/01/09 09:29:40;;;;;;;;;2.50;0.00;;;;;;;;5017089;28;45414;-78
2023/01/09 09:32:05;;;;;;;;;0.00;0.00;;;;;;;;5017348;28;46041;-79
2023/01/09 09:34:30;;;;;;;;;0.25;0.00;;;;;;;;5019901;28;45141;-79
2023/01/09 09:36:55;;;;;;;;;0.00;0.00;;;;;;;;5015130;28;45559;-80
2023/01/09 09:39:21;;;;;;;;;0.00;0.00;;;;;;;;5016866;28;45648;-79
2023/01/09 09:45:07;;;;;;;;;1.00;0.00;;;;;;;;5018844;28;45291;-81
2023/01/09 09:48:08;;;;;;;;;2.00;1.00;;;;;;;;5017027;28;45375;-80
2023/01/09 09:50:52;;;;;;;;;0.00;0.00;;;;;;;;4972357;28;45539;-79
2023/01/09 09:53:20;;;;;;;;;0.00;0.00;;;;;;;;5009037;28;45592;-79
2023/01/09 09:55:47;;;;;;;;;1.00;0.00;;;;;;;;5008978;28;45270;-79
2023/01/09 09:58:20;;;;;;;;;2.50;0.00;;;;;;;;5004509;28;44833;-79
2023/01/09 10:00:46;;;;;;;;;0.00;0.00;;;;;;;;5019121;28;45224;-79
2023/01/09 10:03:26;;;;;;;;;1.00;0.00;;;;;;;;5017365;28;46982;-78
2023/01/09 10:05:51;;;;;;;;;0.00;0.00;;;;;;;;5017299;28;45215;-79
2023/01/09 10:08:36;;;;;;;;;1.00;0.00;;;;;;;;5016398;28;45202;-83
2023/01/09 10:11:02;;;;;;;;;0.75;0.00;;;;;;;;5019222;28;45280;-84
2023/01/09 10:16:17;;;;;;;;;0.00;0.00;;;;;;;;5013739;28;45383;-76
2023/01/09 10:19:09;;;;;;;;;3.25;0.50;;;;;;;;5019824;28;45657;-78
2023/01/09 10:21:34;;;;;;;;;0.75;0.50;;;;;;;;5019514;28;45197;-78
2023/01/09 10:24:19;;;;;;;;;1.25;0.00;;;;;;;;5016460;28;46771;-77
2023/01/09 10:26:52;;;;;;;;;1.00;1.00;;;;;;;;5019791;28;45287;-76
2023/01/09 10:29:18;;;;;;;;;0.00;0.00;;;;;;;;5008357;28;45365;-75
2023/01/09 10:31:59;;;;;;;;;0.00;0.00;;;;;;;;5018002;28;45244;-77
2023/01/09 10:34:27;;;;;;;;;0.00;0.00;;;;;;;;5010864;28;45268;-80
2023/01/09 10:36:55;;;;;;;;;0.00;0.00;;;;;;;;5020849;28;45272;-79
2023/01/09 10:39:23;;;;;;;;;0.00;0.00;;;;;;;;5019793;28;45372;-77
2023/01/09 10:41:52;;;;;;;;;0.00;0.00;;;;;;;;5021339;28;45319;-80
2023/01/09 10:44:21;;;;;;;;;0.00;0.00;;;;;;;;5012951;28;48453;-79
2023/01/09 10:46:51;;;;;;;;;0.00;0.00;;;;;;;;5014593;28;45407;-79
2023/01/09 10:49:17;;;;;;;;;1.50;0.00;;;;;;;;5011007;28;45311;-80
2023/01/09 10:51:46;;;;;;;;;0.00;0.00;;;;;;;;5005664;28;45231;-79
2023/01/09 10:54:13;;;;;;;;;1.25;1.00;;;;;;;;5010869;28;45322;-79
2023/01/09 10:56:40;;;;;;;;;0.00;0.00;;;;;;;;5013544;28;44795;-79
2023/01/09 10:59:07;;;;;;;;;1.00;0.00;;;;;;;;5010179;28;45357;-79
2023/01/09 11:01:36;;;;;;;;;0.00;0.00;;;;;;;;5017697;28;45240;-78
2023/01/09 11:04:01;;;;;;;;;1.25;0.00;;;;;;;;5005220;28;45334;-79
2023/01/09 11:06:43;;;;;;;;;2.00;0.00;;;;;;;;5006652;28;45300;-79
2023/01/09 11:09:08;;;;;;;;;1.75;0.00;;;;;;;;5014112;28;45530;-76
2023/01/09 11:11:39;;;;;;;;;0.00;0.00;;;;;;;;5016370;28;44803;-79
2023/01/09 11:14:26;;;;;;;;;0.75;0.00;;;;;;;;5010005;28;45358;-80
2023/01/09 11:16:56;;;;;;;;;1.00;1.00;;;;;;;;5014006;28;45265;-79
2023/01/09 11:19:21;;;;;;;;;0.00;0.00;;;;;;;;5014515;28;45443;-79
2023/01/09 11:21:47;;;;;;;;;1.00;1.00;;;;;;;;5006106;28;45374;-79
2023/01/09 11:24:19;;;;;;;;;0.00;0.00;;;;;;;;5010194;28;45969;-79
2023/01/09 11:26:46;;;;;;;;;0.75;0.75;;;;;;;;5014289;28;45333;-81
2023/01/09 11:29:12;;;;;;;;;2.25;0.00;;;;;;;;5006534;28;45335;-78
2023/01/09 11:31:39;;;;;;;;;1.00;1.00;;;;;;;;5016409;28;45430;-82
2023/01/09 11:34:05;;;;;;;;;0.00;0.00;;;;;;;;5008959;28;48137;-79
2023/01/09 11:36:30;;;;;;;;;1.00;0.00;;;;;;;;5019983;28;45165;-82
2023/01/09 11:38:57;;;;;;;;;4.00;2.00;;;;;;;;5014825;28;45304;-82
2023/01/09 11:41:29;;;;;;;;;1.75;0.00;;;;;;;;5019336;28;45795;-79
2023/01/09 11:43:55;;;;;;;;;1.00;0.00;;;;;;;;5015075;28;46180;-81
2023/01/09 11:46:33;;;;;;;;;0.00;0.00;;;;;;;;5017800;28;45277;-80
2023/01/09 11:48:59;;;;;;;;;3.25;1.00;;;;;;;;5019568;28;45279;-83
2023/01/09 11:51:26;;;;;;;;;1.00;0.00;;;;;;;;5024543;28;45478;-83
2023/01/09 11:54:02;;;;;;;;;0.00;0.00;;;;;;;;5008763;28;46117;-84
2023/01/09 11:56:28;;;;;;;;;1.00;0.00;;;;;;;;5008926;28;45308;-84
2023/01/09 11:58:53;;;;;;;;;0.00;0.00;;;;;;;;5003148;28;45234;-80
2023/01/09 12:01:35;;;;;;;;;0.50;0.00;;;;;;;;5018411;28;45294;-79
2023/01/09 12:04:00;;;;;;;;;0.00;0.00;;;;;;;;5013096;28;46802;-80
2023/01/09 12:06:28;;;;;;;;;0.00;0.00;;;;;;;;5017892;28;45339;-79
2023/01/09 12:08:55;;;;;;;;;1.00;0.00;;;;;;;;5008548;28;45352;-80
2023/01/09 12:11:50;;;;;;;;;3.00;0.00;;;;;;;;5019751;28;45665;-79
2023/01/09 12:14:27;;;;;;;;;1.00;0.00;;;;;;;;4976445;28;47239;-80
2023/01/09 12:16:52;;;;;;;;;2.00;0.00;;;;;;;;5011839;28;45367;-85
2023/01/09 12:19:36;;;;;;;;;1.00;1.00;;;;;;;;5005562;28;45740;-75
2023/01/09 12:22:12;;;;;;;;;0.50;0.00;;;;;;;;5010644;28;46325;-77
2023/01/09 12:24:56;;;;;;;;;0.00;0.00;;;;;;;;5005970;28;47972;-78
2023/01/09 12:27:24;;;;;;;;;1.00;0.00;;;;;;;;5008162;28;45185;-80
2023/01/09 12:29:49;;;;;;;;;1.00;1.00;;;;;;;;5009222;28;45450;-83
2023/01/09 12:32:34;;;;;;;;;0.75;0.75;;;;;;;;5011975;28;45372;-81
2023/01/09 12:35:02;;;;;;;;;0.00;0.00;;;;;;;;5008647;28;45375;-85
2023/01/09 12:37:40;;;;;;;;;3.25;1.00;;;;;;;;5014684;28;45724;-80
2023/01/09 12:40:21;;;;;;;;;1.00;1.00;;;;;;;;5010551;28;45537;-79
2023/01/09 12:42:49;;;;;;;;;1.50;0.00;;;;;;;;5010681;28;45377;-79
2023/01/09 12:45:21;;;;;;;;;2.00;0.25;;;;;;;;5010920;28;45363;-76
2023/01/09 12:47:47;;;;;;;;;0.50;0.00;;;;;;;;5012636;28;45343;-79
2023/01/09 12:50:12;;;;;;;;;3.25;0.25;;;;;;;;5017488;28;45359;-79
2023/01/09 12:52:40;;;;;;;;;2.00;1.00;;;;;;;;5013638;28;45629;-81
2023/01/09 12:55:17;;;;;;;;;0.00;0.00;;;;;;;;5008273;28;45155;-83
2023/01/09 12:57:45;;;;;;;;;0.00;0.00;;;;;;;;5012213;28;45379;-80
2023/01/09 13:00:18;;;;;;;;;0.00;0.00;;;;;;;;5004958;28;45391;-84
2023/01/09 13:02:46;;;;;;;;;1.50;0.00;;;;;;;;5011611;28;45049;-81
2023/01/09 13:05:20;;;;;;;;;0.00;0.00;;;;;;;;5020635;28;47275;-81
2023/01/09 13:07:59;;;;;;;;;2.25;0.00;;;;;;;;5016220;28;45519;-77
2023/01/09 13:10:32;;;;;;;;;0.00;0.00;;;;;;;;5013848;28;45279;-79
2023/01/09 13:12:59;;;;;;;;;0.00;0.00;;;;;;;;5008083;28;45601;-79
2023/01/09 13:15:33;;;;;;;;;0.00;0.00;;;;;;;;5005874;28;45302;-79
2023/01/09 13:18:11;;;;;;;;;1.00;0.00;;;;;;;;5008236;28;45558;-76
2023/01/09 13:20:44;;;;;;;;;0.00;0.00;;;;;;;;5006603;28;45150;-80
2023/01/09 13:23:14;;;;;;;;;1.75;0.00;;;;;;;;5008976;28;45569;-78
2023/01/09 13:25:45;;;;;;;;;0.00;0.00;;;;;;;;5008606;28;47153;-81
2023/01/09 13:28:16;;;;;;;;;0.25;0.25;;;;;;;;5011554;28;45442;-80
2023/01/09 13:30:41;;;;;;;;;3.00;1.00;;;;;;;;5000970;28;44713;-80
2023/01/09 13:33:14;;;;;;;;;0.25;0.25;;;;;;;;5011261;28;45568;-81
2023/01/09 13:35:47;;;;;;;;;0.25;0.00;;;;;;;;5011268;28;47145;-79
2023/01/09 13:38:16;;;;;;;;;2.50;1.00;;;;;;;;5014185;28;45472;-79
2023/01/09 13:40:41;;;;;;;;;2.00;1.00;;;;;;;;5019549;28;45441;-80
2023/01/09 13:43:09;;;;;;;;;1.00;1.00;;;;;;;;5017951;28;45318;-80
2023/01/09 13:45:36;;;;;;;;;0.00;0.00;;;;;;;;5020538;28;45659;-80
2023/01/09 13:48:13;;;;;;;;;0.00;0.00;;;;;;;;5013924;28;45276;-81
2023/01/09 13:50:39;;;;;;;;;1.00;0.00;;;;;;;;5017276;28;45213;-81
2023/01/09 13:53:16;;;;;;;;;0.00;0.00;;;;;;;;5014204;28;45350;-80
2023/01/09 13:56:04;;;;;;;;;2.25;0.00;;;;;;;;5021133;28;45396;-84
2023/01/09 13:58:35;;;;;;;;;0.00;0.00;;;;;;;;5012232;28;45705;-84
2023/01/09 14:01:02;;;;;;;;;0.00;0.00;;;;;;;;5022535;28;44840;-79
2023/01/09 14:03:31;;;;;;;;;1.00;1.00;;;;;;;;5025356;28;45457;-80
2023/01/09 14:05:56;;;;;;;;;3.00;0.50;;;;;;;;5021781;28;46405;-79
2023/01/09 14:08:23;;;;;;;;;0.00;0.00;;;;;;;;5010048;28;45538;-80
2023/01/09 14:10:50;;;;;;;;;1.00;1.00;;;;;;;;5007627;28;45650;-81
2023/01/09 14:13:23;;;;;;;;;3.00;1.00;;;;;;;;5009714;28;45497;-79
2023/01/09 14:15:49;;;;;;;;;3.00;2.00;;;;;;;;5021115;28;45323;-82
2023/01/09 14:18:21;;;;;;;;;2.75;1.25;;;;;;;;5012207;28;45621;-80
2023/01/09 14:20:55;;;;;;;;;1.00;1.00;;;;;;;;5019218;28;45269;-78
2023/01/09 14:23:22;;;;;;;;;1.75;1.00;;;;;;;;5013892;28;45158;-79
2023/01/09 14:25:48;;;;;;;;;4.00;2.00;;;;;;;;5020172;28;47004;-77
2023/01/09 14:28:32;;;;;;;;;1.50;0.00;;;;;;;;5012387;28;45499;-76
2023/01/09 14:30:57;;;;;;;;;2.00;2.00;;;;;;;;5013946;28;45245;-76
2023/01/09 14:33:26;;;;;;;;;1.25;1.00;;;;;;;;5013343;28;45246;-75
2023/01/09 14:35:51;;;;;;;;;1.00;1.00;;;;;;;;5012767;28;45396;-76
2023/01/09 14:38:16;;;;;;;;;0.00;0.00;;;;;;;;5018294;28;45575;-75
2023/01/09 14:40:53;;;;;;;;;1.25;0.50;;;;;;;;5012889;28;45274;-76
2023/01/09 14:43:30;;;;;;;;;1.00;1.00;;;;;;;;5017905;28;45799;-77
2023/01/09 14:46:01;;;;;;;;;3.00;1.00;;;;;;;;5018169;28;45891;-76
2023/01/09 14:48:27;;;;;;;;;4.25;2.00;;;;;;;;5008285;28;45461;-78
2023/01/09 14:50:56;;;;;;;;;2.00;1.00;;;;;;;;5017998;28;45422;-76
2023/01/09 14:53:21;;;;;;;;;1.00;1.00;;;;;;;;5010451;28;45442;-74
2023/01/09 14:55:51;;;;;;;;;4.00;1.00;;;;;;;;5016603;28;46303;-76
2023/01/09 14:58:21;;;;;;;;;1.75;1.00;;;;;;;;5010490;28;45652;-77
2023/01/09 15:00:56;;;;;;;;;2.00;1.25;;;;;;;;5015709;28;44814;-75
2023/01/09 15:03:21;;;;;;;;;3.25;2.00;;;;;;;;5008079;28;45458;-75